createdAt,value
2022-10-21T00:02:46.513Z,100520.41
2022-10-21T00:05:50.018Z,100520.34
2022-10-21T00:08:52.531Z,100518.41
2022-10-21T00:11:55.037Z,100512.13
2022-10-21T00:14:58.865Z,100510.75
2022-10-21T00:18:01.370Z,100507.03
2022-10-21T00:21:06.786Z,100515.84
2022-10-21T00:24:09.464Z,100505.63
2022-10-21T00:27:11.957Z,100503.44
2022-10-21T00:30:15.768Z,100496.69
2022-10-21T00:33:18.333Z,100494.69
2022-10-21T00:36:20.822Z,100490.06
2022-10-21T00:39:23.304Z,100482.41
2022-10-21T00:42:33.674Z,100479.81
2022-10-21T00:45:37.463Z,100472.47
2022-10-21T00:48:43.994Z,100471.00
2022-10-21T00:51:50.578Z,100478.09
2022-10-21T00:54:56.211Z,100480.44
2022-10-21T00:57:59.015Z,100480.22
2022-10-21T01:01:05.816Z,100468.97
2022-10-21T01:04:08.354Z,100471.63
2022-10-21T01:07:11.834Z,100480.88
2022-10-21T01:10:14.310Z,100481.25
2022-10-21T01:13:26.426Z,100494.31
2022-10-21T01:16:37.672Z,100481.22
2022-10-21T01:19:58.400Z,100465.19
2022-10-21T01:23:35.491Z,100446.34
2022-10-21T01:26:56.338Z,100451.44
2022-10-21T01:30:08.612Z,100449.38
2022-10-21T01:33:36.579Z,100450.63
2022-10-21T01:36:47.827Z,100444.19
2022-10-21T01:39:55.127Z,100432.63
2022-10-21T01:43:00.688Z,100432.25
2022-10-21T01:46:07.753Z,100439.41
2022-10-21T01:49:18.846Z,100434.44
2022-10-21T01:52:22.105Z,100429.56
2022-10-21T01:55:29.964Z,100436.75
2022-10-21T01:58:35.894Z,100430.34
2022-10-21T02:01:39.997Z,100437.94
2022-10-21T02:04:46.375Z,100437.31
2022-10-21T02:07:50.166Z,100425.78
2022-10-21T02:10:58.229Z,100424.53
2022-10-21T02:14:05.190Z,100417.59
2022-10-21T02:17:11.092Z,100423.66
2022-10-21T02:20:18.639Z,100420.13
2022-10-21T02:23:26.367Z,100395.69
2022-10-21T02:26:29.584Z,100400.31
2022-10-21T02:29:36.789Z,100397.59
2022-10-21T02:32:49.113Z,100385.34
2022-10-21T02:36:08.237Z,100386.88
2022-10-21T02:39:17.619Z,100378.44
2022-10-21T02:42:25.120Z,100372.47
2022-10-21T02:45:28.547Z,100365.00
2022-10-21T02:48:34.132Z,100365.88
2022-10-21T02:51:37.930Z,100378.22
2022-10-21T02:54:40.413Z,100382.19
2022-10-21T02:57:42.889Z,100379.06
2022-10-21T03:00:45.399Z,100366.44
2022-10-21T03:03:47.992Z,100368.22
2022-10-21T03:06:51.849Z,100346.47
2022-10-21T03:09:54.304Z,100334.06
2022-10-21T03:12:56.789Z,100336.78
2022-10-21T03:15:59.249Z,100343.44
2022-10-21T03:19:01.704Z,100337.22
2022-10-21T03:22:05.595Z,100327.09
2022-10-21T03:25:09.079Z,100314.72
2022-10-21T03:28:11.597Z,100324.16
2022-10-21T03:31:14.084Z,100328.03
2022-10-21T03:34:16.767Z,100326.03
2022-10-21T03:37:20.668Z,100321.22
2022-10-21T03:40:24.336Z,100310.34
2022-10-21T03:43:26.782Z,100303.66
2022-10-21T03:46:29.291Z,100308.06
2022-10-21T03:49:31.806Z,100306.38
2022-10-21T03:52:35.813Z,100312.47
2022-10-21T03:55:38.658Z,100289.56
2022-10-21T03:58:41.241Z,100291.84
2022-10-21T04:01:43.824Z,100291.38
2022-10-21T04:04:46.348Z,100272.31
2022-10-21T04:07:53.027Z,100261.09
2022-10-21T04:10:58.089Z,100273.38
2022-10-21T04:14:00.623Z,100280.53
2022-10-21T04:17:07.558Z,100265.19
2022-10-21T04:20:12.112Z,100267.50
2022-10-21T04:23:15.908Z,100269.97
2022-10-21T04:26:18.728Z,100267.78
2022-10-21T04:29:21.392Z,100275.94
2022-10-21T04:32:23.876Z,100277.44
2022-10-21T04:35:26.403Z,100270.19
2022-10-21T04:38:30.504Z,100260.53
2022-10-21T04:41:33.011Z,100252.44
2022-10-21T04:44:35.482Z,100251.44
2022-10-21T04:47:38.158Z,100245.41
2022-10-21T04:50:40.949Z,100246.91
2022-10-21T04:53:44.775Z,100235.16
2022-10-21T04:56:47.259Z,100236.31
2022-10-21T04:59:49.726Z,100225.00
2022-10-21T05:02:52.184Z,100222.25
2022-10-21T05:05:54.891Z,100215.34
2022-10-21T05:08:58.780Z,100205.81
2022-10-21T05:12:01.444Z,100198.22
2022-10-21T05:15:04.092Z,100191.75
2022-10-21T05:18:06.710Z,100185.69
2022-10-21T05:21:09.200Z,100189.53
2022-10-21T05:24:13.006Z,100177.91
2022-10-21T05:27:15.530Z,100166.28
2022-10-21T05:30:18.166Z,100170.25
2022-10-21T05:33:20.651Z,100171.94
2022-10-21T05:36:24.091Z,100178.34
2022-10-21T05:39:28.477Z,100174.94
2022-10-21T05:42:30.953Z,100178.38
2022-10-21T05:45:33.418Z,100167.09
2022-10-21T05:48:36.132Z,100177.44
2022-10-21T05:51:38.652Z,100180.09
2022-10-21T05:54:42.473Z,100188.19
2022-10-21T05:57:44.970Z,100182.56
2022-10-21T06:00:48.844Z,100180.06
2022-10-21T06:03:51.811Z,100174.16
2022-10-21T06:06:54.344Z,100177.75
2022-10-21T06:09:58.158Z,100176.47
2022-10-21T06:13:00.616Z,100183.72
2022-10-21T06:19:06.415Z,100179.88
2022-10-21T06:22:08.928Z,100183.00
2022-10-21T06:25:12.846Z,100182.59
2022-10-21T06:28:15.331Z,100187.78
2022-10-21T06:31:20.651Z,100179.88
2022-10-21T06:34:23.259Z,100178.44
2022-10-21T06:37:25.869Z,100185.78
2022-10-21T06:40:29.780Z,100182.13
2022-10-21T06:43:32.475Z,100185.31
2022-10-21T06:46:35.186Z,100182.47
2022-10-21T06:49:37.653Z,100186.84
2022-10-21T06:52:40.374Z,100198.41
2022-10-21T06:55:44.151Z,100195.91
2022-10-21T06:58:48.231Z,100200.50
2022-10-21T07:02:06.104Z,100198.94
2022-10-21T07:05:08.941Z,100195.72
2022-10-21T07:08:12.765Z,100201.69
2022-10-21T07:11:17.450Z,100198.75
2022-10-21T07:14:19.949Z,100199.31
2022-10-21T07:17:22.703Z,100201.22
2022-10-21T07:20:25.182Z,100204.28
2022-10-21T07:23:27.665Z,100210.69
2022-10-21T07:26:34.915Z,100215.84
2022-10-21T07:29:37.388Z,100209.25
2022-10-21T07:32:39.850Z,100209.16
2022-10-21T07:35:42.400Z,100210.66
2022-10-21T07:38:46.647Z,100216.09
2022-10-21T07:41:52.267Z,100211.63
2022-10-21T07:44:59.360Z,100209.81
2022-10-21T07:48:01.821Z,100214.81
2022-10-21T07:51:06.295Z,100206.53
2022-10-21T07:54:09.881Z,100200.91
2022-10-21T07:57:13.682Z,100204.06
2022-10-21T08:00:16.200Z,100204.22
2022-10-21T08:03:18.665Z,100201.72
2022-10-21T08:06:21.185Z,100200.97
2022-10-21T08:09:23.663Z,100206.72
2022-10-21T08:12:27.672Z,100208.28
2022-10-21T08:15:30.126Z,100205.13
2022-10-21T08:18:32.597Z,100213.56
2022-10-21T08:21:35.949Z,100212.69
2022-10-21T08:24:41.419Z,100202.38
2022-10-21T08:27:46.221Z,100199.91
2022-10-21T08:30:48.829Z,100196.34
2022-10-21T08:33:51.351Z,100194.13
2022-10-21T08:36:53.899Z,100186.41
2022-10-21T08:39:56.347Z,100197.13
2022-10-21T08:43:08.397Z,100194.41
2022-10-21T08:46:16.813Z,100190.19
2022-10-21T08:49:27.369Z,100184.25
2022-10-21T08:52:40.888Z,100189.66
2022-10-21T08:55:45.953Z,100190.59
2022-10-21T08:58:52.524Z,100180.22
2022-10-21T09:02:04.085Z,100178.94
2022-10-21T09:05:27.365Z,100169.91
2022-10-21T09:08:36.572Z,100167.38
2022-10-21T09:11:53.032Z,100164.38
2022-10-21T09:15:10.476Z,100164.47
2022-10-21T09:18:26.766Z,100168.25
2022-10-21T09:21:41.056Z,100162.50
2022-10-21T09:24:51.396Z,100151.81
2022-10-21T09:27:56.823Z,100146.78
2022-10-21T09:31:03.549Z,100139.78
2022-10-21T09:34:16.213Z,100134.78
2022-10-21T09:37:25.273Z,100139.59
2022-10-21T09:40:29.471Z,100137.78
2022-10-21T09:43:32.268Z,100136.25
2022-10-21T09:46:36.054Z,100129.59
2022-10-21T09:50:05.758Z,100128.44
2022-10-21T09:53:07.307Z,100136.69
2022-10-21T09:56:15.657Z,100137.00
2022-10-21T09:59:22.634Z,100134.31
2022-10-21T10:02:36.422Z,100132.88
2022-10-21T10:05:43.914Z,100131.22
2022-10-21T10:08:48.198Z,100130.56
2022-10-21T10:11:54.653Z,100131.06
2022-10-21T10:14:57.505Z,100129.03
2022-10-21T10:18:01.472Z,100130.44
2022-10-21T10:21:06.308Z,100124.28
2022-10-21T10:24:17.909Z,100137.78
2022-10-21T10:27:26.534Z,100135.69
2022-10-21T10:30:38.049Z,100131.03
2022-10-21T10:33:54.205Z,100119.97
2022-10-21T10:37:04.063Z,100117.66
2022-10-21T10:40:10.453Z,100111.31
2022-10-21T10:43:16.936Z,100121.31
2022-10-21T10:46:25.810Z,100124.22
2022-10-21T10:49:37.609Z,100126.22
2022-10-21T10:52:39.971Z,100119.53
2022-10-21T10:55:45.128Z,100109.09
2022-10-21T10:58:52.241Z,100102.59
2022-10-21T11:02:01.228Z,100103.56
2022-10-21T11:05:17.661Z,100098.03
2022-10-21T11:08:26.724Z,100087.06
2022-10-21T11:11:37.148Z,100080.28
2022-10-21T11:14:39.630Z,100074.91
2022-10-21T11:17:50.587Z,100080.34
2022-10-21T11:21:06.161Z,100078.88
2022-10-21T11:24:35.461Z,100067.50
2022-10-21T11:27:50.249Z,100052.06
2022-10-21T11:31:07.798Z,100045.13
2022-10-21T11:34:19.645Z,100040.75
2022-10-21T11:37:27.819Z,100038.59
2022-10-21T11:40:36.219Z,100039.00
2022-10-21T11:43:46.310Z,100039.94
2022-10-21T11:46:59.180Z,100039.09
2022-10-21T11:50:13.331Z,100045.28
2022-10-21T11:53:33.876Z,100046.91
2022-10-21T11:56:45.951Z,100041.88
2022-10-21T12:00:02.653Z,100050.06
2022-10-21T12:03:28.297Z,100040.56
2022-10-21T12:06:38.393Z,100041.91
2022-10-21T12:09:49.249Z,100050.94
2022-10-21T12:12:53.045Z,100044.94
2022-10-21T12:15:59.992Z,100044.38
2022-10-21T12:19:06.989Z,100041.41
2022-10-21T12:22:11.862Z,100046.47
2022-10-21T12:25:29.659Z,100044.59
2022-10-21T12:28:35.351Z,100028.63
2022-10-21T12:31:45.681Z,100030.84
2022-10-21T12:34:49.556Z,100026.94
2022-10-21T12:38:21.307Z,100028.06
2022-10-21T12:41:31.847Z,100028.13
2022-10-21T12:44:34.879Z,100030.69
2022-10-21T12:47:44.480Z,100034.69
2022-10-21T12:50:58.288Z,100039.50
2022-10-21T12:54:08.760Z,100040.50
2022-10-21T12:57:25.218Z,100037.53
2022-10-21T13:00:52.796Z,100035.94
2022-10-21T13:03:56.592Z,100035.06
2022-10-21T13:07:00.292Z,100026.75
2022-10-21T13:10:36.104Z,100026.03
2022-10-21T13:13:41.418Z,100017.84
2022-10-21T13:16:44.081Z,100023.13
2022-10-21T13:19:46.617Z,100023.06
2022-10-21T13:22:50.581Z,100020.56
2022-10-21T13:26:06.209Z,100009.59
2022-10-21T13:29:35.588Z,100019.50
2022-10-21T13:32:39.181Z,100013.50
2022-10-21T13:35:45.751Z,100011.09
2022-10-21T13:38:52.002Z,100013.50
2022-10-21T13:42:03.784Z,100009.38
2022-10-21T13:45:18.699Z,100016.25
2022-10-21T13:48:25.536Z,100017.94
2022-10-21T13:51:30.123Z,100010.38
2022-10-21T13:54:36.008Z,100012.50
2022-10-21T13:57:39.530Z,100014.44
2022-10-21T14:00:43.678Z,100020.66
2022-10-21T14:03:46.777Z,100011.91
2022-10-21T14:06:52.846Z,100002.22
2022-10-21T14:09:59.102Z,99995.84
2022-10-21T14:13:01.651Z,100002.00
2022-10-21T14:16:07.489Z,99991.16
2022-10-21T14:19:15.467Z,99996.53
2022-10-21T14:22:20.098Z,99996.13
2022-10-21T14:25:22.729Z,99996.78
2022-10-21T14:28:25.449Z,99997.38
2022-10-21T14:31:30.075Z,100002.59
2022-10-21T14:34:34.692Z,100003.47
2022-10-21T14:37:43.013Z,99998.34
2022-10-21T14:40:45.544Z,99980.22
2022-10-21T14:43:50.374Z,99992.84
2022-10-21T14:46:55.236Z,99982.66
2022-10-21T14:49:59.669Z,99988.56
2022-10-21T14:53:02.464Z,99987.41
2022-10-21T14:56:07.733Z,99989.03
2022-10-21T14:59:20.410Z,99972.13
2022-10-21T15:02:28.391Z,99973.91
2022-10-21T15:05:35.349Z,99976.50
2022-10-21T15:08:41.504Z,99968.91
2022-10-21T15:11:45.586Z,99962.50
2022-10-21T15:14:48.053Z,99964.63
2022-10-21T15:18:02.802Z,99964.13
2022-10-21T15:21:10.628Z,99968.69
2022-10-21T15:24:20.144Z,99969.81
2022-10-21T15:27:28.877Z,99974.16
2022-10-21T15:30:35.311Z,99965.47
2022-10-21T15:33:39.097Z,99965.56
2022-10-21T15:36:41.900Z,99970.78
2022-10-21T15:39:45.482Z,99960.38
2022-10-21T15:42:48.988Z,99963.50
2022-10-21T15:45:51.526Z,99967.69
2022-10-21T15:48:55.547Z,99967.81
2022-10-21T15:51:58.033Z,99960.06
2022-10-21T15:55:00.827Z,99956.72
2022-10-21T15:58:03.303Z,99970.03
2022-10-21T16:01:10.634Z,99964.28
2022-10-21T16:04:14.645Z,99962.22
2022-10-21T16:07:20.776Z,99960.38
2022-10-21T16:10:25.711Z,99955.03
2022-10-21T16:13:28.185Z,99955.66
2022-10-21T16:16:30.910Z,99953.59
2022-10-21T16:19:34.721Z,99959.00
2022-10-21T16:22:37.428Z,99947.84
2022-10-21T16:25:40.087Z,99951.91
2022-10-21T16:28:42.952Z,99956.03
2022-10-21T16:31:45.600Z,99958.69
2022-10-21T16:34:49.372Z,99954.19
2022-10-21T16:37:52.381Z,99955.16
2022-10-21T16:40:55.060Z,99957.84
2022-10-21T16:43:57.526Z,99958.84
2022-10-21T16:47:00.045Z,99959.97
2022-10-21T16:50:05.442Z,99965.94
2022-10-21T16:53:08.667Z,99961.66
2022-10-21T16:56:11.172Z,99952.34
2022-10-21T16:59:13.642Z,99965.81
2022-10-21T17:02:18.400Z,99961.00
2022-10-21T17:05:22.298Z,99968.03
2022-10-21T17:08:24.788Z,99965.03
2022-10-21T17:11:32.969Z,99964.78
2022-10-21T17:17:43.077Z,99970.69
2022-10-21T17:20:46.895Z,99969.38
2022-10-21T17:23:49.947Z,99973.28
2022-10-21T17:26:52.417Z,99971.88
2022-10-21T17:29:54.863Z,99972.63
2022-10-21T17:32:57.389Z,99976.22
2022-10-21T17:36:01.207Z,99979.63
2022-10-21T17:39:04.151Z,99977.09
2022-10-21T17:42:06.663Z,99982.44
2022-10-21T17:45:14.542Z,99980.78
2022-10-21T17:48:17.082Z,99983.09
2022-10-21T17:51:21.546Z,99981.97
2022-10-21T17:54:27.865Z,99983.13
2022-10-21T17:57:33.075Z,99983.06
2022-10-21T18:00:35.739Z,99988.28
2022-10-21T18:03:38.782Z,99998.69
2022-10-21T18:06:42.762Z,99997.56
2022-10-21T18:09:45.221Z,99990.06
2022-10-21T18:12:47.665Z,99995.66
2022-10-21T18:15:51.176Z,99987.66
2022-10-21T18:18:57.258Z,99985.97
2022-10-21T18:22:04.423Z,99983.56
2022-10-21T18:25:07.863Z,99977.66
2022-10-21T18:28:10.899Z,99977.16
2022-10-21T18:31:13.484Z,99974.72
2022-10-21T18:34:16.241Z,99971.53
2022-10-21T18:37:20.634Z,99967.94
2022-10-21T18:40:23.147Z,99969.00
2022-10-21T18:43:25.592Z,99965.28
2022-10-21T18:46:28.740Z,99958.81
2022-10-21T18:49:31.202Z,99964.31
2022-10-21T18:52:35.224Z,99961.25
2022-10-21T18:55:40.459Z,99968.03
2022-10-21T18:58:43.855Z,99971.81
2022-10-21T19:01:46.402Z,99978.38
2022-10-21T19:04:49.287Z,99972.44
2022-10-21T19:07:54.283Z,99970.41
2022-10-21T19:10:56.753Z,99967.81
2022-10-21T19:13:59.241Z,99970.84
2022-10-21T19:17:01.864Z,99972.47
2022-10-21T19:20:04.725Z,99968.59
2022-10-21T19:23:08.690Z,99973.50
2022-10-21T19:26:11.962Z,99966.34
2022-10-21T19:29:17.247Z,99986.69
2022-10-21T19:32:19.700Z,99976.25
2022-10-21T19:35:22.158Z,99988.59
2022-10-21T19:38:43.215Z,99980.56
2022-10-21T19:41:46.631Z,99989.16
2022-10-21T19:44:49.107Z,99989.75
2022-10-21T19:47:51.564Z,99990.13
2022-10-21T19:50:58.784Z,99993.66
2022-10-21T19:54:04.674Z,99987.72
2022-10-21T19:57:07.141Z,99992.16
2022-10-21T20:00:11.224Z,99985.44
2022-10-21T20:03:13.696Z,99994.69
2022-10-21T20:06:18.512Z,99997.84
2022-10-21T20:09:22.328Z,99998.66
2022-10-21T20:12:24.871Z,99996.25
2022-10-21T20:15:27.539Z,99992.34
2022-10-21T20:18:30.829Z,100000.59
2022-10-21T20:21:35.253Z,100005.56
2022-10-21T20:24:40.404Z,100003.94
2022-10-21T20:27:45.592Z,100011.13
2022-10-21T20:30:56.361Z,100014.41
2022-10-21T20:33:59.571Z,100013.44
2022-10-21T20:37:02.081Z,100011.00
2022-10-21T20:40:06.994Z,100006.31
2022-10-21T20:43:09.540Z,100006.31
2022-10-21T20:46:13.891Z,99998.00
2022-10-21T20:49:16.437Z,100003.66
2022-10-21T20:52:18.912Z,99994.13
2022-10-21T20:55:22.811Z,99997.34
2022-10-21T20:58:25.306Z,99994.06
2022-10-21T21:01:30.897Z,99995.69
2022-10-21T21:04:33.446Z,99983.41
2022-10-21T21:07:37.334Z,99991.56
2022-10-21T21:10:41.470Z,99984.94
2022-10-21T21:13:44.783Z,99987.94
2022-10-21T21:16:47.304Z,99987.34
2022-10-21T21:19:49.757Z,99979.50
2022-10-21T21:22:52.211Z,99981.41
2022-10-21T21:25:56.059Z,99987.50
2022-10-21T21:28:58.991Z,99994.34
2022-10-21T21:32:01.499Z,100006.84
2022-10-21T21:35:06.075Z,100006.66
2022-10-21T21:38:09.717Z,100005.94
2022-10-21T21:41:16.482Z,99989.28
2022-10-21T21:44:18.988Z,99993.38
2022-10-21T21:47:21.476Z,99984.31
2022-10-21T21:50:26.720Z,99985.13
2022-10-21T21:53:29.261Z,99977.22
2022-10-21T21:56:33.050Z,99983.72
2022-10-21T21:59:35.540Z,99978.50
2022-10-21T22:02:38.053Z,99978.81
2022-10-21T22:05:57.342Z,99978.81
2022-10-21T22:09:04.771Z,99968.94
2022-10-21T22:12:14.410Z,99965.91
2022-10-21T22:18:56.717Z,99965.75
2022-10-21T22:23:02.878Z,99976.84
2022-10-21T22:27:56.541Z,99966.16
2022-10-21T22:54:11.680Z,99982.13
2022-10-21T23:06:35.676Z,99980.88
2022-10-21T23:10:02.795Z,99991.41
2022-10-21T23:15:13.063Z,99986.03
2022-10-21T23:17:43.627Z,99994.69
2022-10-21T23:33:37.544Z,100002.22
2022-10-21T23:42:22.251Z,100005.28
2022-10-21T23:46:04.114Z,100004.09
2022-10-21T23:57:44.666Z,100011.19
